createdAt,value
2017-10-12T00:00:54.881Z,6.96
2017-10-12T00:03:21.146Z,7.00
2017-10-12T00:05:47.353Z,6.90
2017-10-12T00:08:13.568Z,6.88
2017-10-12T00:10:39.801Z,6.80
2017-10-12T00:13:06.011Z,6.73
2017-10-12T00:15:32.219Z,6.72
2017-10-12T00:17:58.486Z,6.71
2017-10-12T00:20:24.702Z,6.69
2017-10-12T00:22:50.947Z,6.72
2017-10-12T00:25:17.198Z,6.65
2017-10-12T00:27:43.415Z,6.61
2017-10-12T00:30:09.624Z,6.58
2017-10-12T00:32:35.896Z,6.59
2017-10-12T00:35:02.125Z,6.54
2017-10-12T00:37:28.450Z,6.57
2017-10-12T00:39:54.696Z,6.58
2017-10-12T00:42:20.927Z,6.58
2017-10-12T00:44:47.142Z,6.72
2017-10-12T00:47:13.417Z,6.68
2017-10-12T00:49:39.816Z,6.60
2017-10-12T00:52:06.061Z,6.51
2017-10-12T00:54:32.492Z,6.49
2017-10-12T00:56:58.733Z,6.43
2017-10-12T00:59:24.971Z,6.51
2017-10-12T01:01:51.244Z,6.44
2017-10-12T01:04:17.471Z,6.42
2017-10-12T01:06:43.686Z,6.38
2017-10-12T01:09:09.968Z,6.51
2017-10-12T01:11:36.202Z,6.43
2017-10-12T01:14:02.465Z,6.35
2017-10-12T01:16:28.752Z,6.40
2017-10-12T01:18:54.975Z,6.51
2017-10-12T01:21:21.198Z,6.49
2017-10-12T01:23:47.461Z,6.58
2017-10-12T01:26:13.680Z,6.51
2017-10-12T01:28:39.894Z,6.57
2017-10-12T01:31:06.151Z,6.71
2017-10-12T01:33:32.374Z,6.74
2017-10-12T01:35:58.595Z,6.76
2017-10-12T01:38:24.862Z,6.82
2017-10-12T01:40:51.099Z,6.83
2017-10-12T01:43:17.328Z,6.80
2017-10-12T01:45:43.612Z,6.82
2017-10-12T01:48:09.840Z,6.81
2017-10-12T01:50:36.068Z,6.75
2017-10-12T01:53:02.347Z,6.71
2017-10-12T01:55:28.575Z,6.62
2017-10-12T01:57:54.817Z,6.55
2017-10-12T02:00:21.085Z,6.45
2017-10-12T02:02:47.323Z,6.33
2017-10-12T02:05:13.561Z,6.46
2017-10-12T02:07:39.806Z,6.39
2017-10-12T02:10:06.033Z,6.34
2017-10-12T02:12:32.284Z,6.24
2017-10-12T02:14:58.544Z,6.17
2017-10-12T02:17:24.777Z,6.12
2017-10-12T02:19:51.013Z,6.16
2017-10-12T02:22:17.260Z,6.13
2017-10-12T02:24:43.496Z,6.06
2017-10-12T02:27:09.781Z,6.07
2017-10-12T02:29:36.040Z,6.04
2017-10-12T02:32:02.276Z,6.00
2017-10-12T02:34:28.506Z,5.99
2017-10-12T02:36:54.778Z,6.08
2017-10-12T02:39:21.155Z,5.99
2017-10-12T02:41:47.388Z,5.99
2017-10-12T02:44:13.666Z,5.90
2017-10-12T02:46:40.035Z,5.88
2017-10-12T02:49:06.257Z,5.87
2017-10-12T02:51:32.507Z,6.00
2017-10-12T02:53:58.740Z,5.98
2017-10-12T02:56:24.970Z,6.02
2017-10-12T02:58:51.193Z,6.10
2017-10-12T03:01:17.425Z,6.22
2017-10-12T03:03:43.645Z,6.18
2017-10-12T03:06:09.930Z,6.09
2017-10-12T03:08:36.167Z,6.08
2017-10-12T03:11:02.386Z,5.99
2017-10-12T03:13:28.737Z,6.03
2017-10-12T03:15:54.973Z,6.16
2017-10-12T03:18:21.187Z,6.21
2017-10-12T03:20:47.459Z,6.24
2017-10-12T03:23:13.695Z,6.05
2017-10-12T03:25:39.936Z,5.90
2017-10-12T03:28:06.213Z,5.83
2017-10-12T03:30:32.444Z,5.80
2017-10-12T03:32:58.667Z,5.80
2017-10-12T03:35:24.936Z,5.70
2017-10-12T03:37:51.171Z,5.78
2017-10-12T03:40:17.389Z,5.68
2017-10-12T03:42:43.626Z,5.74
2017-10-12T03:45:09.842Z,5.74
2017-10-12T03:47:36.074Z,5.78
2017-10-12T03:50:02.344Z,5.83
2017-10-12T03:52:28.578Z,5.75
2017-10-12T03:54:54.811Z,5.85
2017-10-12T03:57:21.082Z,5.95
2017-10-12T03:59:47.312Z,5.95
2017-10-12T04:02:13.530Z,5.72
2017-10-12T04:04:39.795Z,5.76
2017-10-12T04:07:06.031Z,5.73
2017-10-12T04:09:32.258Z,5.55
2017-10-12T04:11:58.524Z,5.47
2017-10-12T04:14:24.761Z,5.40
2017-10-12T04:16:50.974Z,5.38
2017-10-12T04:19:17.326Z,5.33
2017-10-12T04:21:43.556Z,5.41
2017-10-12T04:24:09.807Z,5.34
2017-10-12T04:26:36.042Z,5.40
2017-10-12T04:29:02.270Z,5.56
2017-10-12T04:31:28.533Z,5.55
2017-10-12T04:33:54.845Z,5.57
2017-10-12T04:36:21.075Z,5.56
2017-10-12T04:38:47.300Z,5.63
2017-10-12T04:41:13.563Z,5.73
2017-10-12T04:43:39.803Z,5.85
2017-10-12T04:46:06.026Z,5.99
2017-10-12T04:48:32.281Z,6.11
2017-10-12T04:50:58.494Z,6.39
2017-10-12T04:53:24.717Z,6.69
2017-10-12T04:55:50.991Z,6.87
2017-10-12T04:58:17.212Z,6.89
2017-10-12T05:00:43.432Z,7.22
2017-10-12T05:03:09.675Z,7.64
2017-10-12T05:05:35.916Z,7.81
2017-10-12T05:08:02.188Z,8.29
2017-10-12T05:10:28.468Z,8.77
2017-10-12T05:12:54.698Z,8.74
2017-10-12T05:15:20.984Z,9.08
2017-10-12T05:17:47.246Z,9.48
2017-10-12T05:20:13.473Z,9.71
2017-10-12T05:22:39.687Z,9.61
2017-10-12T05:25:05.964Z,9.26
2017-10-12T05:27:32.204Z,9.11
2017-10-12T05:29:58.422Z,9.41
2017-10-12T05:32:24.712Z,10.55
2017-10-12T05:34:50.950Z,11.76
2017-10-12T05:37:17.205Z,12.45
2017-10-12T05:39:43.461Z,12.78
2017-10-12T05:42:09.680Z,13.27
2017-10-12T05:44:35.894Z,14.25
2017-10-12T05:47:02.161Z,15.32
2017-10-12T05:49:28.396Z,15.63
2017-10-12T05:51:54.632Z,16.57
2017-10-12T05:54:20.909Z,16.92
2017-10-12T05:56:47.132Z,17.96
2017-10-12T05:59:13.365Z,18.74
2017-10-12T06:01:39.648Z,19.53
2017-10-12T06:04:05.875Z,18.85
2017-10-12T06:06:32.100Z,18.92
2017-10-12T06:08:58.394Z,19.25
2017-10-12T06:11:24.564Z,19.85
2017-10-12T06:13:50.732Z,19.62
2017-10-12T06:16:16.942Z,19.32
2017-10-12T06:18:43.129Z,18.81
2017-10-12T06:21:09.290Z,19.24
2017-10-12T06:23:35.510Z,18.89
2017-10-12T06:26:01.688Z,19.19
2017-10-12T06:28:27.867Z,19.82
2017-10-12T06:30:54.069Z,20.23
2017-10-12T06:33:20.268Z,20.80
2017-10-12T06:35:46.460Z,20.98
2017-10-12T06:38:12.783Z,21.83
2017-10-12T06:40:38.946Z,22.77
2017-10-12T06:43:05.132Z,23.48
2017-10-12T06:45:31.409Z,23.30
2017-10-12T06:47:57.577Z,23.42
2017-10-12T06:50:23.739Z,23.27
2017-10-12T06:52:49.956Z,23.67
2017-10-12T06:55:16.122Z,23.64
2017-10-12T06:57:42.300Z,23.86
2017-10-12T07:00:08.517Z,23.91
2017-10-12T07:02:34.692Z,23.70
2017-10-12T07:05:00.882Z,23.91
2017-10-12T07:07:27.934Z,24.27
2017-10-12T07:09:54.261Z,24.22
2017-10-12T07:12:20.444Z,24.35
2017-10-12T07:14:46.664Z,24.52
2017-10-12T07:17:12.848Z,24.87
2017-10-12T07:19:39.036Z,24.56
2017-10-12T07:22:05.261Z,24.84
2017-10-12T07:24:31.449Z,23.82
2017-10-12T07:26:57.622Z,24.49
2017-10-12T07:29:23.841Z,24.88
2017-10-12T07:31:50.014Z,24.52
2017-10-12T07:34:16.213Z,25.42
2017-10-12T07:36:42.440Z,25.56
2017-10-12T07:39:08.619Z,25.28
2017-10-12T07:41:34.786Z,26.03
2017-10-12T07:44:01.001Z,25.40
2017-10-12T07:46:27.180Z,25.30
2017-10-12T07:48:53.376Z,25.24
2017-10-12T07:51:19.591Z,26.35
2017-10-12T07:53:45.770Z,26.17
2017-10-12T07:56:11.948Z,25.76
2017-10-12T07:58:38.188Z,25.88
2017-10-12T08:01:04.381Z,25.98
2017-10-12T08:03:30.559Z,26.95
2017-10-12T08:05:56.780Z,27.29
2017-10-12T08:08:22.961Z,27.50
2017-10-12T08:10:49.127Z,27.75
2017-10-12T08:13:15.345Z,27.38
2017-10-12T08:15:41.530Z,27.57
2017-10-12T08:18:07.699Z,28.03
2017-10-12T08:20:33.912Z,28.15
2017-10-12T08:23:00.095Z,28.77
2017-10-12T08:25:26.270Z,28.83
2017-10-12T08:27:52.489Z,29.51
2017-10-12T08:30:18.665Z,29.67
2017-10-12T08:32:44.841Z,29.24
2017-10-12T08:35:11.100Z,29.41
2017-10-12T08:37:37.283Z,29.24
2017-10-12T08:40:03.469Z,29.58
2017-10-12T08:42:29.681Z,30.02
2017-10-12T08:44:55.876Z,29.89
2017-10-12T08:47:22.054Z,28.64
2017-10-12T08:49:48.283Z,28.92
2017-10-12T08:52:14.472Z,29.59
2017-10-12T08:54:40.655Z,30.71
2017-10-12T08:57:06.875Z,30.72
2017-10-12T08:59:33.053Z,30.02
2017-10-12T09:01:59.227Z,30.41
2017-10-12T09:04:25.440Z,30.44
2017-10-12T09:06:51.629Z,31.06
2017-10-12T09:09:17.873Z,31.18
2017-10-12T09:11:44.079Z,31.28
2017-10-12T09:14:10.260Z,31.30
2017-10-12T09:16:36.445Z,31.36
2017-10-12T09:19:02.646Z,31.77
2017-10-12T09:21:28.869Z,31.82
2017-10-12T09:23:55.046Z,30.96
2017-10-12T09:26:21.337Z,28.71
2017-10-12T09:28:47.568Z,29.61
2017-10-12T09:31:13.795Z,30.76
2017-10-12T09:33:40.038Z,32.35
2017-10-12T09:36:06.460Z,33.08
2017-10-12T09:38:32.691Z,33.69
2017-10-12T09:40:58.986Z,33.95
2017-10-12T09:43:25.344Z,33.86
2017-10-12T09:45:51.554Z,33.13
2017-10-12T09:48:17.810Z,32.30
2017-10-12T09:50:44.040Z,32.33
2017-10-12T09:53:10.258Z,31.50
2017-10-12T09:55:36.545Z,32.32
2017-10-12T09:58:02.770Z,31.97
2017-10-12T10:00:28.994Z,31.66
2017-10-12T10:02:55.261Z,32.34
2017-10-12T10:05:21.474Z,32.78
2017-10-12T10:07:47.838Z,32.29
2017-10-12T10:10:14.108Z,33.26
2017-10-12T10:12:40.340Z,33.73
2017-10-12T10:15:06.566Z,33.61
2017-10-12T10:17:32.821Z,33.78
2017-10-12T10:19:59.040Z,33.84
2017-10-12T10:22:25.272Z,33.96
2017-10-12T10:24:51.548Z,35.15
2017-10-12T10:27:17.827Z,34.45
2017-10-12T10:29:44.055Z,33.53
2017-10-12T10:32:10.328Z,33.49
2017-10-12T10:34:36.561Z,33.53
2017-10-12T10:37:02.796Z,32.27
2017-10-12T10:39:29.078Z,33.50
2017-10-12T10:41:55.311Z,33.76
2017-10-12T10:44:21.675Z,33.87
2017-10-12T10:46:47.941Z,34.12
2017-10-12T10:49:14.161Z,34.29
2017-10-12T10:51:40.396Z,33.44
2017-10-12T10:54:06.792Z,34.45
2017-10-12T10:56:33.065Z,34.33
2017-10-12T10:58:59.286Z,33.93
2017-10-12T11:01:25.551Z,33.60
2017-10-12T11:03:51.766Z,33.76
2017-10-12T11:06:17.996Z,35.10
2017-10-12T11:08:44.276Z,35.01
2017-10-12T11:11:10.502Z,34.11
2017-10-12T11:13:36.722Z,33.45
2017-10-12T11:16:02.991Z,33.00
2017-10-12T11:18:29.233Z,34.65
2017-10-12T11:20:55.445Z,34.88
2017-10-12T11:23:21.698Z,35.27
2017-10-12T11:25:47.916Z,35.32
2017-10-12T11:28:14.134Z,35.67
2017-10-12T11:30:40.397Z,35.04
2017-10-12T11:33:06.610Z,34.69
2017-10-12T11:35:32.840Z,35.15
2017-10-12T11:37:59.115Z,34.34
2017-10-12T11:40:25.352Z,34.58
2017-10-12T11:42:51.578Z,35.52
2017-10-12T11:45:17.828Z,36.50
2017-10-12T11:47:44.040Z,35.29
2017-10-12T11:50:10.254Z,35.18
2017-10-12T11:52:36.521Z,33.85
2017-10-12T11:55:02.742Z,33.48
2017-10-12T11:57:28.968Z,34.01
2017-10-12T11:59:55.222Z,33.68
2017-10-12T12:02:21.604Z,32.88
2017-10-12T12:04:47.839Z,33.64
2017-10-12T12:07:14.104Z,33.80
2017-10-12T12:09:40.325Z,33.61
2017-10-12T12:12:06.548Z,33.72
2017-10-12T12:14:32.845Z,34.58
2017-10-12T12:16:59.080Z,35.98
2017-10-12T12:19:25.310Z,36.16
2017-10-12T12:21:51.560Z,36.19
2017-10-12T12:24:17.769Z,36.91
2017-10-12T12:26:43.997Z,37.22
2017-10-12T12:29:10.269Z,37.00
2017-10-12T12:31:36.505Z,35.37
2017-10-12T12:34:02.726Z,34.39
2017-10-12T12:36:28.984Z,36.15
2017-10-12T12:38:55.238Z,35.61
2017-10-12T12:41:21.454Z,36.90
2017-10-12T12:43:47.755Z,37.50
2017-10-12T12:46:13.974Z,36.79
2017-10-12T12:48:40.211Z,36.39
2017-10-12T12:51:06.444Z,36.15
2017-10-12T12:53:32.685Z,36.20
2017-10-12T12:55:59.031Z,35.52
2017-10-12T12:58:25.281Z,34.96
2017-10-12T13:00:51.512Z,34.28
2017-10-12T13:03:17.742Z,34.81
2017-10-12T13:05:44.008Z,35.60
2017-10-12T13:08:10.237Z,35.23
2017-10-12T13:10:36.451Z,34.65
2017-10-12T13:13:02.729Z,33.43
2017-10-12T13:15:28.963Z,33.23
2017-10-12T13:17:55.293Z,32.74
2017-10-12T13:20:21.545Z,31.81
2017-10-12T13:22:47.761Z,29.73
2017-10-12T13:25:13.996Z,28.80
2017-10-12T13:27:40.269Z,27.82
2017-10-12T13:30:06.493Z,26.55
2017-10-12T13:32:32.720Z,26.04
2017-10-12T13:34:58.972Z,25.65
2017-10-12T13:37:25.342Z,25.36
2017-10-12T13:39:51.951Z,25.12
2017-10-12T13:42:18.616Z,24.89
2017-10-12T13:44:45.255Z,24.15
2017-10-12T13:47:11.717Z,23.89
2017-10-12T13:49:38.120Z,23.91
2017-10-12T13:52:04.737Z,23.76
2017-10-12T13:54:31.131Z,23.63
2017-10-12T13:56:57.574Z,23.47
2017-10-12T13:59:23.917Z,23.52
2017-10-12T14:01:50.492Z,23.49
2017-10-12T14:04:16.926Z,23.36
2017-10-12T14:06:43.565Z,23.35
2017-10-12T14:09:10.061Z,23.32
2017-10-12T14:11:36.509Z,23.27
2017-10-12T14:14:03.020Z,23.21
2017-10-12T14:16:29.462Z,23.08
2017-10-12T14:18:55.875Z,23.01
2017-10-12T14:21:22.371Z,22.96
2017-10-12T14:23:48.985Z,22.81
2017-10-12T14:26:15.236Z,22.67
2017-10-12T14:28:41.746Z,22.66
2017-10-12T14:31:08.265Z,22.59
2017-10-12T14:33:34.705Z,22.50
2017-10-12T14:36:01.125Z,22.40
2017-10-12T14:38:27.568Z,22.37
2017-10-12T14:40:53.985Z,22.24
2017-10-12T14:43:20.428Z,22.17
2017-10-12T14:45:46.910Z,22.12
2017-10-12T14:48:13.343Z,22.02
2017-10-12T14:50:39.571Z,21.91
2017-10-12T14:53:05.799Z,21.77
2017-10-12T14:55:32.438Z,21.59
2017-10-12T14:57:58.666Z,21.39
2017-10-12T15:00:24.895Z,21.19
2017-10-12T15:02:51.330Z,20.98
2017-10-12T15:05:17.831Z,20.76
2017-10-12T15:07:44.400Z,20.58
2017-10-12T15:10:10.892Z,20.29
2017-10-12T15:12:37.333Z,20.10
2017-10-12T15:15:03.906Z,19.86
2017-10-12T15:17:30.543Z,19.60
2017-10-12T15:19:57.183Z,19.37
2017-10-12T15:22:23.799Z,19.14
2017-10-12T15:24:50.218Z,18.86
2017-10-12T15:27:16.501Z,18.62
2017-10-12T15:29:42.723Z,18.45
2017-10-12T15:32:08.939Z,18.14
2017-10-12T15:34:35.365Z,17.83
2017-10-12T15:37:02.012Z,17.67
2017-10-12T15:39:28.619Z,17.60
2017-10-12T15:41:55.038Z,17.42
2017-10-12T15:44:21.479Z,17.30
2017-10-12T15:46:47.900Z,17.15
2017-10-12T15:49:14.314Z,16.87
2017-10-12T15:51:41.800Z,16.71
2017-10-12T15:54:08.010Z,16.46
2017-10-12T15:56:34.437Z,16.38
2017-10-12T15:59:00.731Z,16.21
2017-10-12T16:01:27.026Z,16.05
2017-10-12T16:03:53.437Z,15.94
2017-10-12T16:06:19.802Z,15.83
2017-10-12T16:08:46.465Z,15.70
2017-10-12T16:11:12.996Z,15.55
2017-10-12T16:13:39.385Z,15.49
2017-10-12T16:16:05.926Z,15.45
2017-10-12T16:18:32.361Z,15.36
2017-10-12T16:20:58.618Z,15.33
2017-10-12T16:23:25.103Z,15.29
2017-10-12T16:25:51.482Z,15.11
2017-10-12T16:28:17.988Z,15.09
2017-10-12T16:30:44.566Z,14.99
2017-10-12T16:33:10.920Z,14.93
2017-10-12T16:35:37.389Z,14.73
2017-10-12T16:38:03.825Z,14.63
2017-10-12T16:40:30.098Z,14.51
2017-10-12T16:42:56.533Z,14.43
2017-10-12T16:45:22.969Z,14.44
2017-10-12T16:47:49.409Z,14.32
2017-10-12T16:50:15.611Z,14.21
2017-10-12T16:52:42.277Z,14.13
2017-10-12T16:55:08.705Z,14.04
2017-10-12T16:57:35.118Z,13.93
2017-10-12T17:00:01.510Z,13.73
2017-10-12T17:02:27.792Z,13.66
2017-10-12T17:04:54.026Z,13.63
2017-10-12T17:07:20.662Z,13.68
2017-10-12T17:09:47.153Z,13.53
2017-10-12T17:12:13.593Z,13.42
2017-10-12T17:14:40.168Z,13.40
2017-10-12T17:17:06.776Z,13.21
2017-10-12T17:19:33.217Z,13.12
2017-10-12T17:21:59.663Z,12.99
2017-10-12T17:24:26.107Z,12.79
2017-10-12T17:26:52.565Z,12.74
2017-10-12T17:29:19.034Z,12.67
2017-10-12T17:31:45.454Z,12.68
2017-10-12T17:34:12.041Z,12.60
2017-10-12T17:36:38.657Z,12.67
2017-10-12T17:39:05.076Z,12.54
2017-10-12T17:41:31.499Z,12.38
2017-10-12T17:43:58.040Z,12.25
2017-10-12T17:48:50.849Z,12.24
2017-10-12T17:51:17.238Z,12.17
2017-10-12T17:53:43.501Z,12.19
2017-10-12T17:56:09.736Z,12.41
2017-10-12T17:58:36.375Z,12.34
2017-10-12T18:01:02.578Z,12.23
2017-10-12T18:03:28.874Z,12.06
2017-10-12T18:05:55.314Z,12.26
2017-10-12T18:08:21.703Z,12.08
2017-10-12T18:10:48.146Z,12.02
2017-10-12T18:13:14.362Z,11.96
2017-10-12T18:15:40.594Z,11.84
2017-10-12T18:18:06.940Z,11.83
2017-10-12T18:20:36.142Z,11.88
2017-10-12T18:23:02.804Z,11.78
2017-10-12T18:25:29.227Z,11.70
2017-10-12T18:27:55.686Z,11.63
2017-10-12T18:30:22.134Z,11.57
2017-10-12T18:32:48.649Z,11.60
2017-10-12T18:35:15.367Z,11.63
2017-10-12T18:37:41.892Z,11.57
2017-10-12T18:40:08.367Z,11.50
2017-10-12T18:42:34.921Z,11.40
2017-10-12T18:45:01.498Z,11.31
2017-10-12T18:47:27.855Z,11.31
2017-10-12T18:52:21.082Z,11.26
2017-10-12T18:54:47.536Z,11.12
2017-10-12T18:57:14.231Z,11.12
2017-10-12T18:59:40.764Z,11.00
2017-10-12T19:02:07.572Z,10.99
2017-10-12T19:04:33.938Z,10.88
2017-10-12T19:07:00.557Z,10.86
2017-10-12T19:09:27.094Z,10.84
2017-10-12T19:11:53.555Z,10.76
2017-10-12T19:14:20.155Z,10.80
2017-10-12T19:16:46.789Z,11.04
2017-10-12T19:19:13.548Z,11.16
2017-10-12T19:21:40.072Z,11.04
2017-10-12T19:24:06.608Z,10.85
2017-10-12T19:26:33.747Z,10.65
2017-10-12T19:29:00.335Z,10.68
2017-10-12T19:31:26.834Z,10.64
2017-10-12T19:33:53.239Z,10.56
2017-10-12T19:36:19.720Z,10.43
2017-10-12T19:38:46.208Z,10.30
2017-10-12T19:43:39.277Z,10.11
2017-10-12T19:46:05.824Z,10.07
2017-10-12T19:48:32.256Z,10.15
2017-10-12T19:55:51.268Z,9.89
2017-10-12T19:58:17.800Z,10.08
2017-10-12T20:00:44.181Z,10.06
2017-10-12T20:03:10.555Z,9.87
2017-10-12T20:05:36.832Z,9.82
2017-10-12T20:08:03.142Z,9.74
2017-10-12T20:10:29.501Z,9.63
2017-10-12T20:12:55.861Z,9.56
2017-10-12T20:15:22.152Z,9.65
2017-10-12T20:17:48.528Z,9.74
2017-10-12T20:20:14.772Z,9.70
2017-10-12T20:22:40.984Z,9.81
2017-10-12T20:25:07.206Z,9.77
2017-10-12T20:27:33.435Z,9.73
2017-10-12T20:29:59.650Z,9.61
2017-10-12T20:32:25.882Z,9.50
2017-10-12T20:34:52.103Z,9.81
2017-10-12T20:37:18.318Z,9.86
2017-10-12T20:39:44.529Z,9.64
2017-10-12T20:42:13.716Z,9.56
2017-10-12T20:44:37.085Z,9.46
2017-10-12T20:47:03.346Z,9.47
2017-10-12T20:51:55.717Z,9.50
2017-10-12T20:54:21.939Z,9.42
2017-10-12T20:56:48.136Z,9.31
2017-10-12T20:59:14.361Z,9.37
2017-10-12T21:01:40.568Z,9.33
2017-10-12T21:04:06.867Z,9.34
2017-10-12T21:06:33.202Z,9.21
2017-10-12T21:08:59.448Z,9.10
2017-10-12T21:11:25.654Z,8.99
2017-10-12T21:13:51.881Z,9.06
2017-10-12T21:16:18.132Z,9.02
2017-10-12T21:18:44.330Z,8.96
2017-10-12T21:21:10.546Z,9.06
2017-10-12T21:23:36.776Z,9.06
2017-10-12T21:26:03.002Z,8.94
2017-10-12T21:28:29.287Z,8.90
2017-10-12T21:30:55.505Z,8.81
2017-10-12T21:33:21.726Z,8.96
2017-10-12T21:35:47.950Z,8.83
2017-10-12T21:38:14.165Z,8.75
2017-10-12T21:40:40.414Z,8.68
2017-10-12T21:43:06.640Z,8.66
2017-10-12T21:45:32.831Z,8.54
2017-10-12T21:47:59.072Z,8.71
2017-10-12T21:50:25.281Z,8.59
2017-10-12T21:52:51.721Z,8.54
2017-10-12T21:55:17.959Z,8.43
2017-10-12T21:57:44.193Z,8.65
2017-10-12T22:00:10.444Z,8.53
2017-10-12T22:02:36.674Z,8.48
2017-10-12T22:05:03.084Z,8.54
2017-10-12T22:07:29.341Z,8.48
2017-10-12T22:09:55.537Z,8.43
2017-10-12T22:12:21.754Z,8.37
2017-10-12T22:14:47.999Z,8.39
2017-10-12T22:17:14.242Z,8.43
2017-10-12T22:19:40.472Z,8.31
2017-10-12T22:22:06.711Z,8.17
2017-10-12T22:24:33.003Z,8.15
2017-10-12T22:26:59.235Z,8.19
2017-10-12T22:29:25.459Z,8.28
2017-10-12T22:31:51.721Z,8.40
2017-10-12T22:34:17.942Z,8.37
2017-10-12T22:36:44.157Z,8.31
2017-10-12T22:39:10.382Z,8.29
2017-10-12T22:41:36.601Z,8.34
2017-10-12T22:44:02.825Z,8.28
2017-10-12T22:46:29.140Z,8.26
2017-10-12T22:48:55.362Z,8.18
2017-10-12T22:51:21.571Z,8.15
2017-10-12T22:53:47.789Z,8.10
2017-10-12T22:56:14.007Z,8.15
2017-10-12T22:58:40.208Z,8.09
2017-10-12T23:01:06.440Z,7.98
2017-10-12T23:03:32.659Z,7.98
2017-10-12T23:05:58.924Z,8.02
2017-10-12T23:08:25.144Z,8.06
2017-10-12T23:10:51.384Z,8.17
2017-10-12T23:13:17.655Z,8.13
2017-10-12T23:15:43.890Z,8.06
2017-10-12T23:18:10.122Z,8.00
2017-10-12T23:20:36.342Z,8.07
2017-10-12T23:23:02.580Z,8.02
2017-10-12T23:25:28.811Z,7.99
2017-10-12T23:27:55.021Z,7.89
2017-10-12T23:30:21.229Z,8.04
2017-10-12T23:32:47.445Z,8.10
2017-10-12T23:35:13.712Z,8.06
2017-10-12T23:37:39.940Z,8.06
2017-10-12T23:40:06.148Z,7.98
2017-10-12T23:42:32.378Z,7.92
2017-10-12T23:44:58.601Z,7.90
2017-10-12T23:47:24.822Z,7.81
2017-10-12T23:49:51.096Z,7.74
2017-10-12T23:52:17.317Z,7.77
2017-10-12T23:54:43.539Z,7.76
2017-10-12T23:57:09.762Z,7.69
2017-10-12T23:59:35.979Z,7.58
